KBYI

Burley Municipal Airport

Burley, Idaho, USA
KBYI 161721Z 1618/1718 28008KT P6SM VCTS BKN110CB BKN130 FM162100 30015KT P6SM VCTS BKN110CB OVC140 TEMPO 1622/1702 VRB20G40KT P6SM -TSRA FM170200 25006KT P6SM VCTS SCT100CB BKN120 FM170500 11006KT P6SM SCT120
Issued Valid From Valid To
Jul-16 @ 17:21 UTC
(3 hours ago)
Jul-16 @ 18:00 UTC
(2 hours ago)
Jul-17 @ 18:00 UTC
(in 22 hours)
Jul-16 @ 18:00 to Jul-16 @ 21:00
KBYI 161721Z 1618/1718 28008KT P6SM VCTS BKN110CB BKN130
Wind Visibility Clouds Conditions
280° at 8 knots Greater than 6 miles
  • Broken at 11,000' AGL
  • Broken at 13,000' AGL
  • Area Thunderstorm
From Jul-16 @ 21:00 to Jul-17 @ 02:00
FM162100 30015KT P6SM VCTS BKN110CB OVC140
Wind Visibility Clouds Conditions
300° at 15 knots Greater than 6 miles
  • Broken at 11,000' AGL
  • Overcast at 14,000' AGL
  • Area Thunderstorm
Temporary Jul-16 @ 22:00 to Jul-17 @ 02:00
TEMPO 1622/1702 VRB20G40KT P6SM -TSRA
Wind Visibility Conditions
Variable at 20 knots
 Gusting to 40 knots
Greater than 6 miles
  • Light Thunderstorm
  • Light Rain
From Jul-17 @ 02:00 to Jul-17 @ 05:00
FM170200 25006KT P6SM VCTS SCT100CB BKN120
Wind Visibility Clouds Conditions
250° at 6 knots Greater than 6 miles
  • Scattered at 10,000' AGL
  • Broken at 12,000' AGL
  • Area Thunderstorm
From Jul-17 @ 05:00 to Jul-17 @ 18:00
FM170500 11006KT P6SM SCT120
Wind Visibility Clouds
110° at 6 knots Greater than 6 miles
  • Scattered at 12,000' AGL
KBYI 161721Z 1618/1718 28008KT P6SM VCTS BKN110CB BKN130 FM162100 30015KT P6SM VCTS BKN110CB OVC140 TEMPO 1622/1702 VRB20G40KT P6SM -TSRA FM170200 25006KT P6SM VCTS SCT100CB BKN120 FM170500 11006KT P6SM SCT120
Issued Jul-16 @ 17:21 UTC
(3 hours ago)
Valid From Jul-16 @ 18:00 UTC
(2 hours ago)
Valid To Jul-17 @ 18:00 UTC
(in 22 hours)
Jul-16 @ 18:00 - Jul-16 @ 21:00
Wind Visibility
280° at 8 knots Greater than 6 miles
Clouds
  • Broken at 11,000' AGL
  • Broken at 13,000' AGL
Conditions
  • Area Thunderstorm
From Jul-16 @ 21:00 - Jul-17 @ 02:00
Wind Visibility
300° at 15 knots Greater than 6 miles
Clouds
  • Broken at 11,000' AGL
  • Overcast at 14,000' AGL
Conditions
  • Area Thunderstorm
Temporary Jul-16 @ 22:00 - Jul-17 @ 02:00
Wind Visibility
Variable at 20 knots
 Gusting to 40 knots
Greater than 6 miles
Conditions
  • Light Thunderstorm
  • Light Rain
From Jul-17 @ 02:00 - Jul-17 @ 05:00
Wind Visibility
250° at 6 knots Greater than 6 miles
Clouds
  • Scattered at 10,000' AGL
  • Broken at 12,000' AGL
Conditions
  • Area Thunderstorm
From Jul-17 @ 05:00 - Jul-17 @ 18:00
Wind Visibility
110° at 6 knots Greater than 6 miles
Clouds
  • Scattered at 12,000' AGL